Time;durP1;ratioP1;P1;durP2;ratioP2;P2;SDS_P1;SDS_P2;PMS_P1;PMS_P2;Temp;Humidity;BMP_temperature;BMP_pressure;BME280_temperature;BME280_humidity;BME280_pressure;Samples;Min_cycle;Max_cycle;Signal;HPM_P1;HPM_P2
2022/12/24 00:01:23;;;;;;;6.47;1.20;;;10.00;99.90;;;;;;5066202;28;20036;-67
2022/12/24 00:03:49;;;;;;;9.85;1.23;;;10.10;99.90;;;;;;5049525;28;20032;-68
2022/12/24 00:06:18;;;;;;;6.90;1.15;;;10.10;99.90;;;;;;5058731;28;20455;-67
2022/12/24 00:08:44;;;;;;;5.15;1.23;;;10.30;99.90;;;;;;5045022;28;20108;-68
2022/12/24 00:11:09;;;;;;;8.23;1.13;;;10.30;99.90;;;;;;5049927;28;20670;-67
2022/12/24 00:13:35;;;;;;;6.63;1.10;;;10.40;99.90;;;;;;5050559;28;20032;-67
2022/12/24 00:16:01;;;;;;;5.35;1.25;;;10.40;99.90;;;;;;5051007;28;20032;-68
2022/12/24 00:18:26;;;;;;;5.45;1.70;;;10.40;99.90;;;;;;5051600;28;20029;-68
2022/12/24 00:20:53;;;;;;;7.80;1.75;;;10.40;99.90;;;;;;5051287;28;20033;-68
2022/12/24 00:23:20;;;;;;;14.13;1.60;;;10.30;99.90;;;;;;5050610;28;20080;-68
2022/12/24 00:25:46;;;;;;;6.43;1.27;;;10.40;99.90;;;;;;5040282;28;20432;-67
2022/12/24 00:28:12;;;;;;;5.97;1.25;;;10.40;99.90;;;;;;5050629;28;20083;-68
2022/12/24 00:30:39;;;;;;;4.15;1.40;;;10.40;99.90;;;;;;5033459;28;20036;-68
2022/12/24 00:33:05;;;;;;;14.75;1.90;;;10.40;99.90;;;;;;5038596;28;20055;-68
2022/12/24 00:35:35;;;;;;;5.13;1.50;;;10.30;99.90;;;;;;5051537;28;20526;-66
2022/12/24 00:38:02;;;;;;;7.07;1.75;;;10.40;99.90;;;;;;5043228;28;20036;-68
2022/12/24 00:40:28;;;;;;;4.05;1.00;;;10.40;99.90;;;;;;5051198;28;20108;-68
2022/12/24 00:42:54;;;;;;;4.80;1.48;;;10.40;99.90;;;;;;5050136;28;20116;-68
2022/12/24 00:45:19;;;;;;;9.60;1.60;;;10.40;99.90;;;;;;5050424;28;20112;-67
2022/12/24 00:47:45;;;;;;;4.63;1.00;;;10.40;99.90;;;;;;5050801;28;20021;-67
2022/12/24 00:50:10;;;;;;;6.47;1.80;;;10.50;99.90;;;;;;5044361;28;20029;-67
2022/12/24 00:52:36;;;;;;;8.65;1.85;;;10.50;99.90;;;;;;5049921;28;20065;-67
2022/12/24 00:55:02;;;;;;;10.70;1.88;;;10.60;99.90;;;;;;5050526;28;20131;-67
2022/12/24 00:57:28;;;;;;;5.43;1.58;;;10.60;99.90;;;;;;5049787;28;20025;-68
2022/12/24 00:59:53;;;;;;;6.25;1.27;;;10.60;99.90;;;;;;5045686;28;20033;-70
2022/12/24 01:02:19;;;;;;;8.85;1.52;;;10.50;99.90;;;;;;5049827;28;20112;-67
2022/12/24 01:07:29;;;;;;;5.88;1.38;;;10.50;99.90;;;;;;5049815;28;20128;-68
2022/12/24 01:09:55;;;;;;;11.30;2.33;;;10.50;99.90;;;;;;5049553;28;20501;-70
2022/12/24 01:12:20;;;;;;;7.60;1.20;;;10.50;99.90;;;;;;5050152;28;20040;-69
2022/12/24 01:14:46;;;;;;;7.22;1.52;;;10.50;99.90;;;;;;5050688;28;20052;-69
2022/12/24 01:17:12;;;;;;;5.57;1.10;;;10.50;99.90;;;;;;5049153;28;20085;-67
2022/12/24 01:19:37;;;;;;;7.60;1.52;;;10.60;99.90;;;;;;5050434;28;20485;-67
2022/12/24 01:22:03;;;;;;;7.65;1.42;;;10.60;99.90;;;;;;5049223;28;20057;-68
2022/12/24 01:24:28;;;;;;;5.88;1.75;;;10.60;99.90;;;;;;5050386;28;20183;-67
2022/12/24 01:26:54;;;;;;;7.03;2.00;;;10.60;99.90;;;;;;5048246;28;20025;-68
2022/12/24 01:29:20;;;;;;;6.75;1.52;;;10.60;99.90;;;;;;5049554;28;20029;-68
2022/12/24 01:31:45;;;;;;;6.32;1.33;;;10.60;99.90;;;;;;5050613;28;20158;-68
2022/12/24 01:34:11;;;;;;;5.63;1.60;;;10.60;99.90;;;;;;5049213;28;20029;-68
2022/12/24 01:36:36;;;;;;;5.97;1.10;;;10.60;99.90;;;;;;5041621;28;20100;-68
2022/12/24 01:39:03;;;;;;;6.80;1.60;;;10.60;99.90;;;;;;5029988;28;20030;-67
2022/12/24 01:44:38;;;;;;;15.18;2.05;;;10.40;99.90;;;;;;5049384;28;20083;-67
2022/12/24 01:47:10;;;;;;;8.10;1.52;;;10.30;99.90;;;;;;5049126;28;20029;-68
2022/12/24 01:49:42;;;;;;;8.68;2.30;;;10.20;99.90;;;;;;5039327;28;20082;-68
2022/12/24 01:52:13;;;;;;;10.75;2.15;;;10.20;99.90;;;;;;5047242;28;20116;-68
2022/12/24 01:55:02;;;;;;;8.88;1.63;;;9.90;99.90;;;;;;5042700;28;20020;-68
2022/12/24 01:57:33;;;;;;;10.98;2.33;;;9.60;99.90;;;;;;5037484;28;20029;-68
2022/12/24 02:00:05;;;;;;;9.05;1.70;;;9.50;99.90;;;;;;5048689;28;20029;-68
2022/12/24 02:02:32;;;;;;;12.38;2.75;;;9.30;99.90;;;;;;5049131;28;20428;-68
2022/12/24 02:05:23;;;;;;;8.63;2.20;;;9.30;99.90;;;;;;5049272;28;20029;-69
2022/12/24 02:07:50;;;;;;;9.70;2.00;;;9.20;99.90;;;;;;5045854;28;20033;-68
2022/12/24 02:10:16;;;;;;;12.20;1.95;;;9.10;99.90;;;;;;5049499;28;20907;-67
2022/12/24 02:12:43;;;;;;;12.35;2.22;;;9.20;99.90;;;;;;5049664;28;20029;-68
2022/12/24 02:15:12;;;;;;;19.10;2.75;;;9.20;99.90;;;;;;5049122;28;20020;-67
2022/12/24 02:18:22;;;;;;;20.05;3.63;;;9.20;99.90;;;;;;5050080;28;20048;-68
2022/12/24 02:21:14;;;;;;;21.77;2.67;;;9.20;99.90;;;;;;5040494;28;20473;-69
2022/12/24 02:23:58;;;;;;;16.05;2.65;;;9.00;99.90;;;;;;5046650;28;20044;-69
2022/12/24 02:26:46;;;;;;;12.85;2.10;;;9.00;99.90;;;;;;5050064;28;20067;-68
2022/12/24 02:29:45;;;;;;;9.98;2.42;;;8.90;99.90;;;;;;5044880;28;20021;-68
2022/12/24 02:32:23;;;;;;;9.97;2.57;;;8.80;99.90;;;;;;5052474;28;20174;-68
2022/12/24 02:35:04;;;;;;;10.45;1.80;;;8.70;99.90;;;;;;5045170;28;20783;-68
2022/12/24 02:38:05;;;;;;;8.43;2.00;;;8.70;99.90;;;;;;5050967;28;20021;-68
2022/12/24 02:40:39;;;;;;;12.80;2.33;;;8.60;99.90;;;;;;5053508;28;20031;-68
2022/12/24 02:43:11;;;;;;;18.20;2.90;;;8.50;99.90;;;;;;5052169;28;20094;-68
2022/12/24 02:45:40;;;;;;;11.57;2.00;;;8.50;99.90;;;;;;5053429;28;20021;-68
2022/12/24 02:48:07;;;;;;;9.77;1.83;;;8.50;99.90;;;;;;5051864;28;20025;-68
2022/12/24 02:50:32;;;;;;;11.48;2.22;;;8.50;99.90;;;;;;5052989;28;20025;-68
2022/12/24 02:52:58;;;;;;;9.57;2.08;;;8.50;99.90;;;;;;5051818;28;20028;-68
2022/12/24 02:55:44;;;;;;;12.15;2.35;;;8.40;99.90;;;;;;5053246;28;20540;-68
2022/12/24 02:58:33;;;;;;;12.23;2.78;;;8.30;99.90;;;;;;5052034;28;20021;-68
2022/12/24 03:01:41;;;;;;;14.27;2.58;;;8.30;99.90;;;;;;5025057;28;20057;-68
2022/12/24 03:04:14;;;;;;;13.48;2.10;;;8.30;99.90;;;;;;5042549;28;20402;-68
2022/12/24 03:06:54;;;;;;;13.75;2.30;;;8.30;99.90;;;;;;5046903;28;20079;-68
2022/12/24 03:09:29;;;;;;;10.32;2.03;;;8.30;99.90;;;;;;5034406;28;20032;-66
2022/12/24 03:12:06;;;;;;;11.75;2.08;;;8.20;99.90;;;;;;5050523;28;20044;-67
2022/12/24 03:14:33;;;;;;;13.52;2.50;;;8.20;99.90;;;;;;5042317;28;20017;-67
2022/12/24 03:17:02;;;;;;;10.23;2.40;;;8.20;99.90;;;;;;5041004;28;20033;-67
2022/12/24 03:19:28;;;;;;;9.27;2.28;;;8.20;99.90;;;;;;5039193;28;20032;-66
2022/12/24 03:21:57;;;;;;;13.80;2.53;;;8.20;99.90;;;;;;5032630;28;20053;-69
2022/12/24 03:24:23;;;;;;;9.85;2.50;;;8.20;99.90;;;;;;5040410;28;20044;-68
2022/12/24 03:26:49;;;;;;;10.98;2.30;;;8.20;99.90;;;;;;5041877;28;20025;-68
2022/12/24 03:29:16;;;;;;;10.98;2.47;;;8.20;99.90;;;;;;5050540;28;20609;-68
2022/12/24 03:31:47;;;;;;;13.95;2.80;;;8.20;99.90;;;;;;5050969;28;20029;-68
2022/12/24 03:34:14;;;;;;;14.45;2.70;;;8.20;99.90;;;;;;5037345;28;20313;-68
2022/12/24 03:36:40;;;;;;;18.88;3.58;;;8.10;99.90;;;;;;5050173;28;20099;-68
2022/12/24 03:39:06;;;;;;;11.88;2.45;;;8.10;99.90;;;;;;5049247;28;20043;-68
2022/12/24 03:41:31;;;;;;;13.55;3.30;;;8.10;99.90;;;;;;5050836;28;20036;-67
2022/12/24 03:43:57;;;;;;;13.13;2.50;;;8.10;99.90;;;;;;5049708;28;20032;-68
2022/12/24 03:46:23;;;;;;;7.85;2.50;;;8.10;99.90;;;;;;5051205;28;20028;-67
2022/12/24 03:48:48;;;;;;;7.15;2.08;;;8.10;99.90;;;;;;5050285;28;20029;-67
2022/12/24 03:51:22;;;;;;;8.10;2.40;;;8.10;99.90;;;;;;5047976;28;20112;-67
2022/12/24 03:53:48;;;;;;;11.48;2.88;;;8.20;99.90;;;;;;5048769;28;20029;-67
2022/12/24 03:56:14;;;;;;;14.85;2.83;;;8.10;99.90;;;;;;5050362;28;20537;-67
2022/12/24 03:58:40;;;;;;;21.35;3.05;;;8.20;99.90;;;;;;5049952;28;20056;-67
2022/12/24 04:01:05;;;;;;;21.60;3.30;;;8.10;99.90;;;;;;5049789;28;20021;-68
2022/12/24 04:03:31;;;;;;;11.35;2.45;;;8.10;99.90;;;;;;5050200;28;20458;-67
2022/12/24 04:06:05;;;;;;;16.73;3.00;;;8.10;99.90;;;;;;5049454;28;20017;-69
2022/12/24 04:08:30;;;;;;;11.30;3.05;;;8.20;99.90;;;;;;5049064;28;20027;-68
2022/12/24 04:10:56;;;;;;;20.98;3.35;;;8.10;99.90;;;;;;5049207;28;20025;-68
2022/12/24 04:13:22;;;;;;;11.88;3.05;;;8.20;99.90;;;;;;5050159;28;20116;-68
2022/12/24 04:16:02;;;;;;;17.80;2.92;;;8.20;99.90;;;;;;5039837;28;20061;-67
2022/12/24 04:18:28;;;;;;;;;;;8.20;99.90;;;;;;5044656;28;20027;-67
2022/12/24 04:20:54;;;;;;;16.58;2.55;;;8.20;99.90;;;;;;5049054;28;19984;-68
2022/12/24 04:23:20;;;;;;;10.73;2.38;;;8.20;99.90;;;;;;5048593;28;20048;-68
2022/12/24 04:25:46;;;;;;;15.40;2.80;;;8.20;99.90;;;;;;5049409;28;20411;-68
2022/12/24 04:28:12;;;;;;;14.93;2.95;;;8.20;99.90;;;;;;5047693;28;20100;-67
2022/12/24 04:30:38;;;;;;;11.23;2.33;;;8.20;99.90;;;;;;5049870;28;20518;-67
2022/12/24 04:33:04;;;;;;;18.98;3.10;;;8.20;99.90;;;;;;5048494;28;20116;-68
2022/12/24 04:35:30;;;;;;;16.92;3.20;;;8.10;99.90;;;;;;5051830;28;20393;-68
2022/12/24 04:37:56;;;;;;;17.00;3.08;;;8.20;99.90;;;;;;5048065;28;20100;-68
2022/12/24 04:40:21;;;;;;;11.63;2.40;;;8.20;99.90;;;;;;5049919;28;20021;-67
2022/12/24 04:42:48;;;;;;;17.08;2.30;;;8.10;99.90;;;;;;5049015;28;20103;-67
2022/12/24 04:45:13;;;;;;;11.50;2.17;;;8.10;99.90;;;;;;5049389;28;20036;-68
2022/12/24 04:47:39;;;;;;;20.20;3.00;;;8.10;99.90;;;;;;5049142;28;20036;-68
2022/12/24 04:50:05;;;;;;;12.50;2.10;;;8.10;99.90;;;;;;5030709;28;20159;-68
2022/12/24 04:52:32;;;;;;;10.00;2.15;;;8.10;99.90;;;;;;5047992;28;20120;-67
2022/12/24 04:54:57;;;;;;;14.13;2.65;;;8.00;99.90;;;;;;5050364;28;20036;-68
2022/12/24 04:57:23;;;;;;;15.23;2.30;;;8.00;99.90;;;;;;5050633;28;20025;-68
2022/12/24 04:59:48;;;;;;;11.68;2.28;;;8.00;99.90;;;;;;5050857;28;20070;-68
2022/12/24 05:02:14;;;;;;;13.45;2.75;;;7.90;99.90;;;;;;5049253;28;20021;-68
2022/12/24 05:04:39;;;;;;;21.50;3.13;;;8.00;99.90;;;;;;5050981;28;20102;-68
2022/12/24 05:07:05;;;;;;;19.00;3.03;;;8.00;99.90;;;;;;5038004;28;20029;-67
2022/12/24 05:09:31;;;;;;;13.68;2.45;;;8.00;99.90;;;;;;5043043;28;20017;-68
2022/12/24 05:11:56;;;;;;;15.23;2.72;;;7.90;99.90;;;;;;5050329;28;20128;-69
2022/12/24 05:14:22;;;;;;;17.08;3.00;;;7.90;99.90;;;;;;5044228;28;20116;-68
2022/12/24 05:16:47;;;;;;;11.23;2.85;;;7.80;99.90;;;;;;5050828;28;20505;-68
2022/12/24 05:19:13;;;;;;;15.15;2.90;;;7.80;99.90;;;;;;5048334;28;20104;-67
2022/12/24 05:21:39;;;;;;;12.13;2.40;;;7.70;99.90;;;;;;5050784;28;20365;-67
2022/12/24 05:26:51;;;;;;;17.98;3.88;;;7.70;99.90;;;;;;5069683;28;20144;-68
2022/12/24 05:29:17;;;;;;;24.23;3.92;;;7.70;99.90;;;;;;5069048;28;20028;-67
2022/12/24 05:31:44;;;;;;;16.52;3.60;;;7.60;99.90;;;;;;5070419;28;20359;-68
2022/12/24 05:34:10;;;;;;;18.42;3.08;;;7.70;99.90;;;;;;5051543;28;20033;-68
2022/12/24 05:36:36;;;;;;;12.57;2.58;;;7.60;99.90;;;;;;5071210;28;20025;-68
2022/12/24 05:39:02;;;;;;;16.92;2.92;;;7.70;99.90;;;;;;5069136;28;20104;-68
2022/12/24 05:41:27;;;;;;;17.13;2.85;;;7.60;99.90;;;;;;5070584;28;20028;-68
2022/12/24 05:43:54;;;;;;;13.48;2.67;;;7.60;99.90;;;;;;5069117;28;20426;-68
2022/12/24 05:46:21;;;;;;;12.82;2.08;;;7.50;99.90;;;;;;5069662;28;20107;-68
2022/12/24 05:48:48;;;;;;;12.48;2.17;;;7.50;99.90;;;;;;5069625;28;20031;-68
2022/12/24 05:51:17;;;;;;;14.57;2.45;;;7.50;99.90;;;;;;5069575;28;20199;-67
2022/12/24 05:53:43;;;;;;;12.63;2.63;;;7.50;99.90;;;;;;5069481;28;20199;-67
2022/12/24 05:56:11;;;;;;;15.63;2.33;;;7.50;99.90;;;;;;5069509;28;20079;-68
2022/12/24 05:58:37;;;;;;;17.30;2.50;;;7.50;99.90;;;;;;5069063;28;20037;-68
2022/12/24 06:01:04;;;;;;;18.48;3.42;;;7.50;99.90;;;;;;5069073;28;20032;-68
2022/12/24 06:03:31;;;;;;;14.60;2.50;;;7.50;99.90;;;;;;5069869;28;20032;-67
2022/12/24 06:06:23;;;;;;;15.82;2.53;;;7.50;99.90;;;;;;5071241;28;20500;-67
2022/12/24 06:08:50;;;;;;;16.30;2.20;;;7.60;99.90;;;;;;5065565;28;20366;-68
2022/12/24 06:11:18;;;;;;;19.83;3.33;;;7.60;99.90;;;;;;5072872;28;20450;-68
2022/12/24 06:13:44;;;;;;;18.05;2.92;;;7.60;99.90;;;;;;5055663;28;20478;-68
2022/12/24 06:16:16;;;;;;;13.68;2.17;;;7.50;99.90;;;;;;5072887;28;20572;-68
2022/12/24 06:18:42;;;;;;;7.60;2.28;;;7.50;99.90;;;;;;5073455;28;20035;-68
2022/12/24 06:21:09;;;;;;;9.30;2.30;;;7.50;99.90;;;;;;5073335;28;20024;-68
2022/12/24 06:23:37;;;;;;;13.10;3.30;;;7.40;99.90;;;;;;5070759;28;20080;-68
2022/12/24 06:26:04;;;;;;;10.98;2.78;;;7.40;99.90;;;;;;5044305;28;20667;-68
2022/12/24 06:28:34;;;;;;;15.23;2.20;;;7.30;99.90;;;;;;5063193;28;20515;-68
2022/12/24 06:31:00;;;;;;;9.30;2.28;;;7.30;99.90;;;;;;5073675;28;20521;-67
2022/12/24 06:33:27;;;;;;;12.60;2.13;;;7.20;99.90;;;;;;5066772;28;20375;-68
2022/12/24 06:35:52;;;;;;;12.80;3.25;;;7.20;99.90;;;;;;5078445;28;20025;-68
2022/12/24 06:38:18;;;;;;;10.43;1.92;;;7.10;99.90;;;;;;5071971;28;20021;-68
2022/12/24 06:40:45;;;;;;;12.65;2.33;;;7.10;99.90;;;;;;5071610;28;20544;-67
2022/12/24 06:43:11;;;;;;;8.75;2.15;;;7.00;99.90;;;;;;5071745;28;20033;-68
2022/12/24 06:45:37;;;;;;;10.82;2.08;;;7.00;99.90;;;;;;5070911;28;20035;-67
2022/12/24 06:48:03;;;;;;;15.73;2.67;;;6.90;99.90;;;;;;5071669;28;20025;-67
2022/12/24 06:50:29;;;;;;;11.27;2.70;;;6.90;99.90;;;;;;5072957;28;20140;-68
2022/12/24 06:52:54;;;;;;;9.75;2.55;;;6.90;99.90;;;;;;5068732;28;20034;-68
2022/12/24 06:55:20;;;;;;;13.95;2.67;;;6.90;99.90;;;;;;5069320;28;20032;-68
2022/12/24 06:57:46;;;;;;;10.35;2.25;;;6.90;99.90;;;;;;5071322;28;20033;-67
2022/12/24 07:00:12;;;;;;;14.32;2.60;;;7.00;99.90;;;;;;5072073;28;20689;-66
2022/12/24 07:02:40;;;;;;;14.02;3.53;;;7.00;99.90;;;;;;5072301;28;20393;-68
2022/12/24 07:05:06;;;;;;;13.02;3.95;;;7.00;99.90;;;;;;5071763;28;20434;-69
2022/12/24 07:07:31;;;;;;;16.60;3.47;;;7.10;99.90;;;;;;5072549;28;20025;-68
2022/12/24 07:09:57;;;;;;;17.20;2.72;;;7.10;99.90;;;;;;5070682;28;20108;-68
2022/12/24 07:12:22;;;;;;;10.63;2.65;;;7.20;99.90;;;;;;5072301;28;20525;-68
2022/12/24 07:14:48;;;;;;;10.57;2.45;;;7.20;99.90;;;;;;5072393;28;20032;-68
2022/12/24 07:17:14;;;;;;;12.30;2.65;;;7.20;99.90;;;;;;5070915;28;20841;-68
2022/12/24 07:19:39;;;;;;;13.55;2.33;;;7.20;99.90;;;;;;5069949;28;20028;-69
2022/12/24 07:22:05;;;;;;;12.05;2.67;;;7.20;99.90;;;;;;5068828;28;20475;-68
2022/12/24 07:24:30;;;;;;;9.80;2.58;;;7.20;99.90;;;;;;5072121;28;20033;-68
2022/12/24 07:26:56;;;;;;;10.80;3.00;;;7.20;99.90;;;;;;5062646;28;20055;-68
2022/12/24 07:29:21;;;;;;;13.40;2.67;;;7.30;99.90;;;;;;5056951;28;20085;-68
2022/12/24 07:31:47;;;;;;;11.13;2.60;;;7.20;99.90;;;;;;5070177;28;20469;-68
2022/12/24 07:34:12;;;;;;;11.95;2.70;;;7.30;99.90;;;;;;5063648;28;20082;-68
2022/12/24 07:36:38;;;;;;;8.75;2.35;;;7.30;99.90;;;;;;5077579;28;20043;-69
2022/12/24 07:39:04;;;;;;;11.82;3.03;;;7.30;99.90;;;;;;5070582;28;20099;-69
2022/12/24 07:41:29;;;;;;;17.55;3.22;;;7.30;99.90;;;;;;5072628;28;20032;-68
2022/12/24 07:43:55;;;;;;;15.82;3.20;;;7.40;99.90;;;;;;5070348;28;20060;-69
2022/12/24 07:46:21;;;;;;;12.20;3.42;;;7.40;99.90;;;;;;5067343;28;20093;-68
2022/12/24 07:48:46;;;;;;;10.35;2.97;;;7.40;99.90;;;;;;5070847;28;20028;-68
2022/12/24 07:51:12;;;;;;;11.32;3.40;;;7.40;99.90;;;;;;5071034;28;20021;-68
2022/12/24 07:53:37;;;;;;;19.02;3.38;;;7.40;99.90;;;;;;5071565;28;20052;-68
2022/12/24 07:56:03;;;;;;;11.98;2.75;;;7.40;99.90;;;;;;5070562;28;20021;-68
2022/12/24 07:58:29;;;;;;;12.80;2.65;;;7.50;99.90;;;;;;5069601;28;20025;-68
2022/12/24 08:00:59;;;;;;;11.93;2.72;;;7.60;99.90;;;;;;5070556;28;20027;-68
2022/12/24 08:03:26;;;;;;;17.17;2.97;;;7.60;99.90;;;;;;5071224;28;20040;-68
2022/12/24 08:05:51;;;;;;;7.85;2.40;;;7.70;99.90;;;;;;5071258;28;20039;-68
2022/12/24 08:08:18;;;;;;;11.25;2.40;;;7.80;99.90;;;;;;5070236;28;20055;-67
2022/12/24 08:10:45;;;;;;;11.20;2.58;;;7.90;99.90;;;;;;5070532;28;20032;-68
2022/12/24 08:13:11;;;;;;;14.10;3.53;;;8.00;99.90;;;;;;5070187;28;20074;-67
2022/12/24 08:15:36;;;;;;;16.05;2.20;;;8.00;99.90;;;;;;5071364;28;20033;-67
2022/12/24 08:18:02;;;;;;;14.15;2.97;;;8.10;99.90;;;;;;5070023;28;20024;-70
2022/12/24 08:20:28;;;;;;;15.93;3.47;;;8.10;99.90;;;;;;5070815;28;20020;-71
2022/12/24 08:22:53;;;;;;;9.57;2.33;;;8.30;99.90;;;;;;5058982;28;20103;-71
2022/12/24 08:25:19;;;;;;;13.07;2.78;;;8.30;99.90;;;;;;5069720;28;20041;-70
2022/12/24 08:27:45;;;;;;;14.15;2.63;;;8.40;99.90;;;;;;5062074;28;20037;-67
2022/12/24 08:30:12;;;;;;;12.30;2.35;;;8.40;99.90;;;;;;5066068;28;20060;-68
2022/12/24 08:32:37;;;;;;;8.50;2.20;;;8.50;99.90;;;;;;5064123;28;20405;-69
2022/12/24 08:35:03;;;;;;;10.10;1.90;;;8.50;99.90;;;;;;5059777;28;20024;-67
2022/12/24 08:37:29;;;;;;;10.27;2.20;;;8.60;99.90;;;;;;5061783;28;20454;-67
2022/12/24 08:39:55;;;;;;;11.55;2.00;;;8.60;99.90;;;;;;5042894;28;20044;-69
2022/12/24 08:42:20;;;;;;;12.63;2.80;;;8.70;99.90;;;;;;5054343;28;20028;-70
2022/12/24 08:44:46;;;;;;;13.80;3.28;;;8.70;99.90;;;;;;5070304;28;20039;-67
2022/12/24 08:47:11;;;;;;;13.13;2.60;;;8.80;99.90;;;;;;5065054;28;20055;-67
2022/12/24 08:49:38;;;;;;;18.85;3.13;;;8.80;99.90;;;;;;5069959;28;20021;-67
2022/12/24 08:52:04;;;;;;;15.82;2.67;;;8.80;99.90;;;;;;5061212;28;20025;-67
2022/12/24 08:54:29;;;;;;;9.55;2.08;;;8.80;99.90;;;;;;5070191;28;20033;-67
2022/12/24 08:56:55;;;;;;;15.32;2.83;;;8.80;99.90;;;;;;5064592;28;20033;-68
2022/12/24 08:59:20;;;;;;;15.18;2.40;;;8.80;99.90;;;;;;5068696;28;20027;-67
2022/12/24 09:01:46;;;;;;;12.98;2.30;;;8.90;99.90;;;;;;5065086;28;20039;-66
2022/12/24 09:04:12;;;;;;;14.45;2.88;;;8.90;99.90;;;;;;5068351;28;20033;-66
2022/12/24 09:06:37;;;;;;;13.25;2.67;;;9.00;99.90;;;;;;5065229;28;20016;-66
2022/12/24 09:09:03;;;;;;;8.95;2.88;;;8.90;99.90;;;;;;5064456;28;20039;-66
2022/12/24 09:11:30;;;;;;;12.07;2.53;;;8.90;99.90;;;;;;5066750;28;20023;-66
2022/12/24 09:13:56;;;;;;;14.98;2.40;;;9.00;99.90;;;;;;5069518;28;20028;-65
2022/12/24 09:16:22;;;;;;;12.10;2.22;;;8.90;99.90;;;;;;5067858;28;20023;-65
2022/12/24 09:18:47;;;;;;;11.35;2.70;;;9.00;99.90;;;;;;5068667;28;20028;-66
2022/12/24 09:21:14;;;;;;;12.80;2.47;;;9.10;99.90;;;;;;5068828;28;20016;-67
2022/12/24 09:23:42;;;;;;;18.02;2.60;;;9.10;99.90;;;;;;5066980;28;20120;-69
2022/12/24 09:26:10;;;;;;;18.52;2.65;;;9.10;99.90;;;;;;5064980;28;20183;-67
2022/12/24 09:28:36;;;;;;;13.98;2.88;;;9.20;99.90;;;;;;5066950;28;20601;-68
2022/12/24 09:31:03;;;;;;;18.50;3.67;;;9.30;99.90;;;;;;5060990;28;20031;-68
2022/12/24 09:33:32;;;;;;;13.68;2.92;;;9.40;99.90;;;;;;5067986;28;20055;-68
2022/12/24 09:35:58;;;;;;;12.27;2.67;;;9.40;99.90;;;;;;5073075;28;20141;-69
2022/12/24 09:38:24;;;;;;;10.32;2.30;;;9.60;99.90;;;;;;5074639;28;20488;-68
2022/12/24 09:40:50;;;;;;;15.55;3.13;;;9.60;99.90;;;;;;5073895;28;20025;-67
2022/12/24 09:43:21;;;;;;;14.57;2.40;;;9.70;99.90;;;;;;5072917;28;20040;-67
2022/12/24 09:46:26;;;;;;;14.45;2.78;;;9.80;99.90;;;;;;5077700;28;20032;-67
2022/12/24 09:48:56;;;;;;;17.00;3.08;;;9.80;99.90;;;;;;5071193;28;20116;-67
2022/12/24 09:51:38;;;;;;;13.18;2.95;;;9.80;99.90;;;;;;5056255;28;20371;-67
2022/12/24 09:54:16;;;;;;;15.10;3.88;;;9.80;99.90;;;;;;5073463;28;20032;-67
2022/12/24 09:56:46;;;;;;;14.55;3.38;;;9.70;99.90;;;;;;5059431;28;20112;-67
2022/12/24 09:59:14;;;;;;;;;;;9.70;99.90;;;;;;5065560;28;20020;-67
2022/12/24 10:01:40;;;;;;;11.50;2.63;;;9.70;99.90;;;;;;5072065;28;19904;-69
2022/12/24 10:04:14;;;;;;;13.15;3.47;;;9.70;99.90;;;;;;5066123;28;20371;-69
2022/12/24 10:06:52;;;;;;;18.33;2.78;;;9.90;99.90;;;;;;5072132;28;20029;-68
2022/12/24 10:09:33;;;;;;;12.15;3.28;;;9.90;99.90;;;;;;5071501;28;20059;-68
2022/12/24 10:12:24;;;;;;;12.25;2.80;;;10.00;99.90;;;;;;5072109;28;20094;-69
2022/12/24 10:15:09;;;;;;;11.85;2.63;;;10.00;99.90;;;;;;5061450;28;20027;-67
2022/12/24 10:18:03;;;;;;;15.63;2.63;;;10.10;99.90;;;;;;5073532;28;20032;-68
2022/12/24 10:20:40;;;;;;;13.05;2.20;;;10.20;99.90;;;;;;5073559;28;20028;-75
2022/12/24 10:23:31;;;;;;;15.77;2.92;;;10.30;99.90;;;;;;5071484;28;20060;-71
2022/12/24 10:26:12;;;;;;;13.07;3.13;;;10.40;99.90;;;;;;5065628;28;20024;-69
2022/12/24 10:28:45;;;;;;;12.57;2.83;;;10.50;99.90;;;;;;5069284;28;20527;-67
2022/12/24 10:31:12;;;;;;;12.13;2.55;;;10.40;99.90;;;;;;5070130;28;20020;-66
2022/12/24 10:33:44;;;;;;;11.27;2.55;;;10.50;99.90;;;;;;5073205;28;20137;-66
2022/12/24 10:36:17;;;;;;;12.57;2.55;;;10.50;99.90;;;;;;5080983;28;20531;-67
2022/12/24 10:38:44;;;;;;;11.45;2.80;;;10.50;99.90;;;;;;5065696;28;20028;-66
2022/12/24 10:41:11;;;;;;;11.30;2.30;;;10.50;99.90;;;;;;5063644;28;20017;-67
2022/12/24 10:43:39;;;;;;;11.75;3.30;;;10.50;99.90;;;;;;5071868;28;20029;-66
2022/12/24 10:46:14;;;;;;;14.18;2.67;;;10.50;99.90;;;;;;5072425;28;20480;-68
2022/12/24 10:48:44;;;;;;;15.38;3.50;;;10.50;99.90;;;;;;5072564;28;20020;-67
2022/12/24 10:51:17;;;;;;;18.08;3.15;;;10.60;99.90;;;;;;5071093;28;20039;-67
2022/12/24 10:53:53;;;;;;;15.98;3.13;;;10.60;99.90;;;;;;5092804;28;20028;-67
2022/12/24 10:56:20;;;;;;;15.82;3.10;;;10.60;99.90;;;;;;5092721;28;20035;-67
2022/12/24 10:58:53;;;;;;;19.30;3.60;;;10.60;99.90;;;;;;5092161;28;20393;-67
2022/12/24 11:01:40;;;;;;;13.20;2.60;;;10.70;99.90;;;;;;5093054;28;20028;-65
2022/12/24 11:04:12;;;;;;;13.35;3.08;;;10.70;99.90;;;;;;5092224;28;20032;-66
2022/12/24 11:06:52;;;;;;;9.45;2.72;;;10.80;99.90;;;;;;5093599;28;20457;-66
2022/12/24 11:09:24;;;;;;;13.00;3.40;;;10.80;99.90;;;;;;5092553;28;20039;-67
2022/12/24 11:11:50;;;;;;;20.27;3.60;;;10.80;99.90;;;;;;5093669;28;20488;-66
2022/12/24 11:14:18;;;;;;;10.75;2.60;;;10.90;99.90;;;;;;5092466;28;20024;-66
2022/12/24 11:16:54;;;;;;;13.45;3.15;;;11.00;99.90;;;;;;5083236;28;20465;-66
2022/12/24 11:19:47;;;;;;;10.45;3.00;;;11.00;99.90;;;;;;5093012;28;20028;-66
2022/12/24 11:22:28;;;;;;;8.55;3.22;;;10.90;99.90;;;;;;5088855;28;20048;-66
2022/12/24 11:24:59;;;;;;;10.90;3.22;;;10.80;99.90;;;;;;5092886;28;20142;-68
2022/12/24 11:27:38;;;;;;;13.52;3.28;;;10.80;99.90;;;;;;5091738;28;20560;-67
2022/12/24 11:30:16;;;;;;;15.80;3.40;;;10.80;99.90;;;;;;5092600;28;20020;-67
2022/12/24 11:32:44;;;;;;;9.10;2.55;;;10.80;99.90;;;;;;5081436;28;20040;-67
2022/12/24 11:35:21;;;;;;;8.82;3.08;;;10.80;99.90;;;;;;5086657;28;20028;-67
2022/12/24 11:38:08;;;;;;;13.38;4.10;;;10.80;99.90;;;;;;5089822;28;20028;-67
2022/12/24 11:40:37;;;;;;;13.35;3.30;;;10.80;99.90;;;;;;5089917;28;20071;-66
2022/12/24 11:43:04;;;;;;;11.80;2.67;;;11.00;99.90;;;;;;5089611;28;20024;-67
2022/12/24 11:45:32;;;;;;;9.25;2.42;;;11.00;99.90;;;;;;5088839;28;20020;-67
2022/12/24 11:47:59;;;;;;;10.63;2.53;;;11.10;99.90;;;;;;5090279;28;20020;-67
2022/12/24 11:50:30;;;;;;;10.77;3.38;;;11.20;99.90;;;;;;5086773;28;20146;-67
2022/12/24 11:53:19;;;;;;;15.40;2.97;;;11.30;99.90;;;;;;5079109;28;20024;-67
2022/12/24 11:55:44;;;;;;;10.57;2.85;;;11.60;99.90;;;;;;5091095;28;20027;-67
2022/12/24 11:58:22;;;;;;;15.32;3.17;;;11.70;99.90;;;;;;5091120;28;20028;-67
2022/12/24 12:00:50;;;;;;;15.88;2.67;;;11.70;99.90;;;;;;5092393;28;20035;-67
2022/12/24 12:03:32;;;;;;;11.52;2.55;;;11.80;99.90;;;;;;5089858;28;20073;-67
2022/12/24 12:06:00;;;;;;;15.80;3.05;;;11.80;99.90;;;;;;5090654;28;20771;-67
2022/12/24 12:08:27;;;;;;;9.60;2.97;;;11.80;99.90;;;;;;5091129;28;20415;-67
2022/12/24 12:10:55;;;;;;;12.50;3.00;;;11.90;99.90;;;;;;5091875;28;20027;-67
2022/12/24 12:13:32;;;;;;;14.20;2.70;;;11.90;99.90;;;;;;5091061;28;20047;-67
2022/12/24 12:16:20;;;;;;;9.73;2.67;;;12.00;99.90;;;;;;5091980;28;20035;-66
2022/12/24 12:18:54;;;;;;;9.38;2.65;;;12.10;99.90;;;;;;5089526;28;20109;-67
2022/12/24 12:21:25;;;;;;;9.52;3.08;;;12.20;99.90;;;;;;5091696;28;20149;-68
2022/12/24 12:23:59;;;;;;;10.55;2.83;;;12.30;99.90;;;;;;5090713;28;20047;-68
2022/12/24 12:26:28;;;;;;;12.65;2.28;;;12.30;99.90;;;;;;5090354;28;20039;-69
2022/12/24 12:29:21;;;;;;;18.48;3.30;;;12.30;99.90;;;;;;5080292;28;20499;-67
2022/12/24 12:31:50;;;;;;;11.90;2.67;;;12.30;99.90;;;;;;5090483;28;20027;-68
2022/12/24 12:34:40;;;;;;;10.70;3.00;;;12.30;99.90;;;;;;5086128;28;20096;-66
2022/12/24 12:37:30;;;;;;;10.73;2.70;;;12.20;99.90;;;;;;5089984;28;20396;-67
2022/12/24 12:39:56;;;;;;;9.20;2.10;;;12.20;99.90;;;;;;5077630;28;20480;-66
2022/12/24 12:42:32;;;;;;;14.02;3.25;;;12.10;99.90;;;;;;5089317;28;20108;-66
2022/12/24 12:45:04;;;;;;;12.15;2.85;;;12.10;99.90;;;;;;5086603;28;20032;-68
2022/12/24 12:47:42;;;;;;;10.52;2.60;;;12.20;99.90;;;;;;5089328;28;20019;-67
2022/12/24 12:50:33;;;;;;;14.38;3.38;;;12.10;99.90;;;;;;5076830;28;20121;-68
2022/12/24 12:53:18;;;;;;;9.40;2.83;;;12.10;99.90;;;;;;5086950;28;20024;-68
2022/12/24 12:55:52;;;;;;;13.20;4.38;;;12.10;99.90;;;;;;5086245;28;20032;-67
2022/12/24 12:58:53;;;;;;;11.27;2.65;;;12.20;99.90;;;;;;5085733;28;20043;-69
2022/12/24 13:01:36;;;;;;;9.40;2.28;;;12.20;99.90;;;;;;5083423;28;20122;-68
2022/12/24 13:04:22;;;;;;;17.95;3.45;;;12.20;99.90;;;;;;5087473;28;20548;-68
2022/12/24 13:07:09;;;;;;;9.25;3.20;;;12.40;99.90;;;;;;5083903;28;20028;-68
2022/12/24 13:10:02;;;;;;;8.05;2.10;;;12.50;99.90;;;;;;5086582;28;20024;-69